createdAt,value
2022-08-02T00:02:55.881Z,2.78
2022-08-02T00:05:57.802Z,2.75
2022-08-02T00:08:59.678Z,2.53
2022-08-02T00:12:01.482Z,2.60
2022-08-02T00:15:04.268Z,2.88
2022-08-02T00:18:06.268Z,2.97
2022-08-02T00:21:08.020Z,2.85
2022-08-02T00:24:28.700Z,2.72
2022-08-02T00:27:31.802Z,2.35
2022-08-02T00:30:33.656Z,2.63
2022-08-02T00:34:26.572Z,3.15
2022-08-02T00:36:57.176Z,2.88
2022-08-02T00:39:59.028Z,2.80
2022-08-02T00:43:10.820Z,2.55
2022-08-02T00:46:13.860Z,2.97
2022-08-02T00:49:15.767Z,2.85
2022-08-02T00:52:18.570Z,2.92
2022-08-02T00:55:30.654Z,3.10
2022-08-02T00:58:33.787Z,2.58
2022-08-02T01:01:56.767Z,2.97
2022-08-02T01:05:00.518Z,2.55
2022-08-02T01:08:02.778Z,3.10
2022-08-02T01:11:04.555Z,3.03
2022-08-02T01:14:10.156Z,3.05
2022-08-02T01:17:42.996Z,2.90
2022-08-02T01:21:09.448Z,2.95
2022-08-02T01:24:20.757Z,3.05
2022-08-02T01:27:39.948Z,3.15
2022-08-02T01:30:44.513Z,2.85
2022-08-02T01:33:56.046Z,3.05
2022-08-02T01:37:29.440Z,3.17
2022-08-02T01:40:36.307Z,3.10
2022-08-02T01:43:40.529Z,3.47
2022-08-02T01:46:43.040Z,2.67
2022-08-02T01:49:48.034Z,2.80
2022-08-02T01:52:53.957Z,3.03
2022-08-02T01:55:59.446Z,3.17
2022-08-02T01:59:02.864Z,3.28
2022-08-02T02:02:09.531Z,2.63
2022-08-02T02:05:14.676Z,2.97
2022-08-02T02:08:26.989Z,2.55
2022-08-02T02:12:11.504Z,2.50
2022-08-02T02:14:54.826Z,2.63
2022-08-02T02:18:12.936Z,2.22
2022-08-02T02:21:15.743Z,2.90
2022-08-02T02:24:17.871Z,2.63
2022-08-02T02:27:24.718Z,3.20
2022-08-02T02:30:28.663Z,2.35
2022-08-02T02:33:33.281Z,2.70
2022-08-02T02:36:37.548Z,2.70
2022-08-02T02:39:42.146Z,2.75
2022-08-02T02:42:49.241Z,2.92
2022-08-02T02:45:53.081Z,3.10
2022-08-02T02:48:56.103Z,2.60
2022-08-02T02:51:58.661Z,3.15
2022-08-02T02:55:03.039Z,3.13
2022-08-02T02:58:05.239Z,3.08
2022-08-02T03:01:55.336Z,2.88
2022-08-02T03:04:56.250Z,3.00
2022-08-02T03:07:59.680Z,3.00
2022-08-02T03:11:02.158Z,3.28
2022-08-02T03:14:10.184Z,2.83
2022-08-02T03:17:12.100Z,2.70
2022-08-02T03:20:16.361Z,3.30
2022-08-02T03:23:19.199Z,2.90
2022-08-02T03:26:21.332Z,3.53
2022-08-02T03:29:24.071Z,2.90
2022-08-02T03:32:25.978Z,3.17
2022-08-02T03:35:28.133Z,3.50
2022-08-02T03:38:32.506Z,3.72
2022-08-02T03:41:37.120Z,4.32
2022-08-02T03:44:39.776Z,3.97
2022-08-02T03:47:42.657Z,4.53
2022-08-02T03:50:47.073Z,3.80
2022-08-02T03:53:49.553Z,3.83
2022-08-02T03:56:51.902Z,3.28
2022-08-02T03:59:53.634Z,3.30
2022-08-02T04:02:55.487Z,3.30
2022-08-02T04:06:03.806Z,3.42
2022-08-02T04:09:06.558Z,3.53
2022-08-02T04:12:08.648Z,3.30
2022-08-02T04:15:13.750Z,3.20
2022-08-02T04:18:17.903Z,3.03
2022-08-02T04:21:21.993Z,3.63
2022-08-02T04:24:39.395Z,4.00
2022-08-02T04:27:51.077Z,3.20
2022-08-02T04:31:05.055Z,3.28
2022-08-02T04:34:07.160Z,3.50
2022-08-02T04:37:09.352Z,3.50
2022-08-02T04:40:12.548Z,3.13
2022-08-02T04:43:14.293Z,3.22
2022-08-02T04:46:16.043Z,3.22
2022-08-02T04:49:17.884Z,3.50
2022-08-02T04:52:19.609Z,2.70
2022-08-02T04:55:21.446Z,3.10
2022-08-02T04:58:39.805Z,3.33
2022-08-02T05:01:42.682Z,3.22
2022-08-02T05:04:44.286Z,2.83
2022-08-02T05:07:46.021Z,2.92
2022-08-02T05:10:47.765Z,3.03
2022-08-02T05:13:58.494Z,3.10
2022-08-02T05:17:01.507Z,3.00
2022-08-02T05:20:05.396Z,2.90
2022-08-02T05:23:07.337Z,3.05
2022-08-02T05:26:09.119Z,3.30
2022-08-02T05:29:10.925Z,3.03
2022-08-02T05:32:13.046Z,3.38
2022-08-02T05:35:19.879Z,3.33
2022-08-02T05:38:26.250Z,3.45
2022-08-02T05:41:28.339Z,3.33
2022-08-02T05:44:30.086Z,3.20
2022-08-02T05:47:32.216Z,3.50
2022-08-02T05:50:44.182Z,3.20
2022-08-02T05:54:04.774Z,3.15
2022-08-02T05:57:52.497Z,3.78
2022-08-02T06:00:56.629Z,3.53
2022-08-02T06:04:01.114Z,3.75
2022-08-02T06:07:06.266Z,4.45
2022-08-02T06:10:09.897Z,3.50
2022-08-02T06:13:18.146Z,3.33
2022-08-02T06:16:32.209Z,3.50
2022-08-02T06:19:51.448Z,3.63
2022-08-02T06:22:58.335Z,3.47
2022-08-02T06:26:00.858Z,3.65
2022-08-02T06:29:03.866Z,3.42
2022-08-02T06:32:07.338Z,3.70
2022-08-02T06:35:09.218Z,3.40
2022-08-02T06:38:19.616Z,3.45
2022-08-02T06:41:24.327Z,3.60
2022-08-02T06:47:47.895Z,3.42
2022-08-02T06:50:49.916Z,3.28
2022-08-02T06:53:51.859Z,3.17
2022-08-02T06:56:53.530Z,3.38
2022-08-02T06:59:55.646Z,3.45
2022-08-02T07:02:57.961Z,3.03
2022-08-02T07:06:00.044Z,3.33
2022-08-02T07:09:19.869Z,3.30
2022-08-02T07:12:22.902Z,3.42
2022-08-02T07:15:24.633Z,3.28
2022-08-02T07:18:26.424Z,3.00
2022-08-02T07:21:45.829Z,3.25
2022-08-02T07:24:50.969Z,3.53
2022-08-02T07:27:52.847Z,3.13
2022-08-02T07:30:58.543Z,3.30
2022-08-02T07:34:00.338Z,3.40
2022-08-02T07:37:02.177Z,3.30
2022-08-02T07:40:11.848Z,3.85
2022-08-02T07:43:15.999Z,3.50
2022-08-02T07:46:18.345Z,3.28
2022-08-02T07:49:20.202Z,3.10
2022-08-02T07:52:22.105Z,3.25
2022-08-02T07:55:24.015Z,3.25
2022-08-02T07:58:41.644Z,3.60
2022-08-02T08:01:46.031Z,3.30
2022-08-02T08:04:48.069Z,3.50
2022-08-02T08:07:49.889Z,3.47
2022-08-02T08:10:51.416Z,4.20
2022-08-02T08:13:53.787Z,4.13
2022-08-02T08:16:55.477Z,4.10
2022-08-02T08:19:58.089Z,3.67
2022-08-02T08:22:59.803Z,3.70
2022-08-02T08:26:01.847Z,3.78
2022-08-02T08:29:06.378Z,3.30
2022-08-02T08:32:09.390Z,3.30
2022-08-02T08:35:17.284Z,3.22
2022-08-02T08:38:19.242Z,3.60
2022-08-02T08:41:21.473Z,3.28
2022-08-02T08:44:23.208Z,2.60
2022-08-02T08:47:34.227Z,2.13
2022-08-02T08:50:39.581Z,2.38
2022-08-02T08:53:44.407Z,2.70
2022-08-02T08:56:46.481Z,2.95
2022-08-02T08:59:48.117Z,2.63
2022-08-02T09:02:50.462Z,2.75
2022-08-02T09:05:52.279Z,2.60
2022-08-02T09:08:54.196Z,2.95
2022-08-02T09:12:13.577Z,2.80
2022-08-02T09:15:25.016Z,3.03
2022-08-02T09:18:35.634Z,2.70
2022-08-02T09:21:38.293Z,3.13
2022-08-02T09:24:48.500Z,3.20
2022-08-02T09:27:50.632Z,3.00
2022-08-02T09:30:52.861Z,2.83
2022-08-02T09:33:57.408Z,2.15
2022-08-02T09:36:59.034Z,3.15
2022-08-02T09:40:03.381Z,2.80
2022-08-02T09:43:07.190Z,2.40
2022-08-02T09:46:24.842Z,2.83
2022-08-02T09:49:26.410Z,2.95
2022-08-02T09:52:37.279Z,3.20
2022-08-02T09:55:56.232Z,2.67
2022-08-02T09:58:58.118Z,3.00
2022-08-02T10:02:04.110Z,3.20
2022-08-02T10:05:06.838Z,3.25
2022-08-02T10:08:08.600Z,3.05
2022-08-02T10:11:12.640Z,2.47
2022-08-02T10:14:14.405Z,2.88
2022-08-02T10:17:17.343Z,2.70
2022-08-02T10:20:19.206Z,2.53
2022-08-02T10:23:22.630Z,2.92
2022-08-02T10:26:25.132Z,2.50
2022-08-02T10:29:44.721Z,2.50
2022-08-02T10:36:04.296Z,2.75
2022-08-02T10:39:10.192Z,3.45
2022-08-02T10:42:24.942Z,2.85
2022-08-02T10:45:27.099Z,2.80
2022-08-02T10:48:28.694Z,2.53
2022-08-02T10:51:54.890Z,2.80
2022-08-02T10:54:57.101Z,2.40
2022-08-02T10:58:17.653Z,2.00
2022-08-02T11:01:45.572Z,1.77
2022-08-02T11:04:47.195Z,2.20
2022-08-02T11:07:51.138Z,1.90
2022-08-02T11:10:59.457Z,2.03
2022-08-02T11:14:09.140Z,1.98
2022-08-02T11:17:19.088Z,2.28
2022-08-02T11:20:23.161Z,1.98
2022-08-02T11:23:44.897Z,2.10
2022-08-02T11:26:47.778Z,2.10
2022-08-02T11:29:49.833Z,2.17
2022-08-02T11:32:55.752Z,1.80
2022-08-02T11:36:02.796Z,1.70
2022-08-02T11:39:17.165Z,1.48
2022-08-02T11:42:19.013Z,1.50
2022-08-02T11:45:29.573Z,1.40
2022-08-02T11:48:38.864Z,1.60
2022-08-02T11:51:54.184Z,1.95
2022-08-02T11:54:56.180Z,1.67
2022-08-02T11:58:04.249Z,1.70
2022-08-02T12:01:07.709Z,1.98
2022-08-02T12:04:10.782Z,1.67
2022-08-02T12:07:12.420Z,1.90
2022-08-02T12:10:19.518Z,1.80
2022-08-02T12:13:21.443Z,2.03
2022-08-02T12:16:42.525Z,1.90
2022-08-02T12:19:45.315Z,1.75
2022-08-02T12:22:47.097Z,2.08
2022-08-02T12:26:16.308Z,2.10
2022-08-02T12:29:55.924Z,2.00
2022-08-02T12:32:51.534Z,1.85
2022-08-02T12:35:53.612Z,1.80
2022-08-02T12:39:01.460Z,1.80
2022-08-02T12:42:04.074Z,2.00
2022-08-02T12:45:07.454Z,1.70
2022-08-02T12:48:09.624Z,1.80
2022-08-02T12:51:23.108Z,1.80
2022-08-02T12:54:30.887Z,1.60
2022-08-02T12:57:51.445Z,2.20
2022-08-02T13:01:00.268Z,1.92
2022-08-02T13:04:11.134Z,1.80
2022-08-02T13:07:14.927Z,1.88
2022-08-02T13:10:17.271Z,1.98
2022-08-02T13:13:18.887Z,1.83
2022-08-02T13:16:30.518Z,2.00
2022-08-02T13:19:33.321Z,2.10
2022-08-02T13:22:36.156Z,1.60
2022-08-02T13:25:37.920Z,2.10
2022-08-02T13:28:42.498Z,1.98
2022-08-02T13:31:44.262Z,2.10
2022-08-02T13:34:46.226Z,1.90
2022-08-02T13:37:48.451Z,2.03
2022-08-02T13:41:10.076Z,2.00
2022-08-02T13:44:11.783Z,1.70
2022-08-02T13:47:13.640Z,1.88
2022-08-02T13:50:15.510Z,2.15
2022-08-02T13:53:17.257Z,2.17
2022-08-02T13:56:19.057Z,2.08
2022-08-02T13:59:21.931Z,1.98
2022-08-02T14:02:42.647Z,1.90
2022-08-02T14:05:47.420Z,2.28
2022-08-02T14:08:50.684Z,2.35
2022-08-02T14:11:52.455Z,2.00
2022-08-02T14:14:54.319Z,2.28
2022-08-02T14:17:56.073Z,1.95
2022-08-02T14:20:57.808Z,2.03
2022-08-02T14:23:59.396Z,2.03
2022-08-02T14:27:02.563Z,2.20
2022-08-02T14:30:05.357Z,2.33
2022-08-02T14:33:07.208Z,2.22
2022-08-02T14:36:09.073Z,2.30
2022-08-02T14:39:12.062Z,1.98
2022-08-02T14:42:13.903Z,2.10
2022-08-02T14:45:16.113Z,2.10
2022-08-02T14:48:17.801Z,1.95
2022-08-02T14:51:19.563Z,1.90
2022-08-02T14:54:28.060Z,2.00
2022-08-02T14:57:32.905Z,1.70
2022-08-02T15:00:40.101Z,1.80
2022-08-02T15:03:42.486Z,1.73
2022-08-02T15:06:45.775Z,1.60
2022-08-02T15:09:47.634Z,1.52
2022-08-02T15:12:49.595Z,1.80
2022-08-02T15:15:51.442Z,1.70
2022-08-02T15:18:53.135Z,1.50
2022-08-02T15:21:57.030Z,1.73
2022-08-02T15:24:58.752Z,1.70
2022-08-02T15:28:00.717Z,1.50
2022-08-02T15:31:02.779Z,1.67
2022-08-02T15:34:04.481Z,1.63
2022-08-02T15:37:06.144Z,1.95
2022-08-02T15:40:08.373Z,1.70
2022-08-02T15:43:10.123Z,1.73
2022-08-02T15:46:11.913Z,1.70
2022-08-02T15:49:13.737Z,1.50
2022-08-02T15:52:16.205Z,1.90
2022-08-02T15:55:18.425Z,1.80
2022-08-02T15:58:22.616Z,1.67
2022-08-02T16:01:24.636Z,1.63
2022-08-02T16:04:26.505Z,1.70
2022-08-02T16:07:28.361Z,2.10
2022-08-02T16:10:30.448Z,1.77
2022-08-02T16:13:53.548Z,2.00
2022-08-02T16:17:02.035Z,1.70
2022-08-02T16:20:04.212Z,2.10
2022-08-02T16:23:05.908Z,1.80
2022-08-02T16:26:07.937Z,1.80
2022-08-02T16:29:10.301Z,2.10
2022-08-02T16:32:12.977Z,2.00
2022-08-02T16:35:15.337Z,1.83
2022-08-02T16:38:18.134Z,2.10
2022-08-02T16:41:20.475Z,2.08
2022-08-02T16:44:29.569Z,1.85
2022-08-02T16:47:42.838Z,1.98
2022-08-02T16:50:54.297Z,1.98
2022-08-02T16:54:00.081Z,1.88
2022-08-02T16:57:04.921Z,1.88
2022-08-02T17:00:11.284Z,1.98
2022-08-02T17:03:13.843Z,2.08
2022-08-02T17:06:16.130Z,2.00
2022-08-02T17:10:01.957Z,1.67
2022-08-02T17:12:40.520Z,1.60
2022-08-02T17:16:16.471Z,1.67
2022-08-02T17:19:04.663Z,1.60
2022-08-02T17:22:06.711Z,1.90
2022-08-02T17:25:14.724Z,1.90
2022-08-02T17:28:16.559Z,1.90
2022-08-02T17:31:18.371Z,1.95
2022-08-02T17:34:40.140Z,1.95
2022-08-02T17:37:54.645Z,1.88
2022-08-02T17:41:04.547Z,2.00
2022-08-02T17:44:06.666Z,1.85
2022-08-02T17:47:11.639Z,1.70
2022-08-02T17:50:13.828Z,2.10
2022-08-02T17:53:17.623Z,1.77
2022-08-02T17:56:19.628Z,2.05
2022-08-02T17:59:30.629Z,2.10
2022-08-02T18:02:33.060Z,2.00
2022-08-02T18:05:39.951Z,2.00
2022-08-02T18:08:56.761Z,2.03
2022-08-02T18:11:58.684Z,2.30
2022-08-02T18:15:00.403Z,1.90
2022-08-02T18:18:03.327Z,1.90
2022-08-02T18:21:16.271Z,2.30
2022-08-02T18:24:25.441Z,2.10
2022-08-02T18:27:30.782Z,2.20
2022-08-02T18:30:34.213Z,2.22
2022-08-02T18:33:59.778Z,1.95
2022-08-02T18:36:57.869Z,2.20
2022-08-02T18:39:59.731Z,2.50
2022-08-02T18:43:03.457Z,2.45
2022-08-02T18:46:16.225Z,2.20
2022-08-02T18:49:19.250Z,2.30
2022-08-02T18:52:30.638Z,2.67
2022-08-02T18:55:59.999Z,2.70
2022-08-02T18:58:56.185Z,3.10
2022-08-02T19:01:58.067Z,2.90
2022-08-02T19:05:00.818Z,2.65
2022-08-02T19:08:03.553Z,2.78
2022-08-02T19:11:05.515Z,2.35
2022-08-02T19:14:07.361Z,2.95
2022-08-02T19:17:53.903Z,2.72
2022-08-02T19:20:32.289Z,3.00
2022-08-02T19:23:35.222Z,2.70
2022-08-02T19:26:39.138Z,3.03
2022-08-02T19:29:43.301Z,3.00
2022-08-02T19:36:03.760Z,2.70
2022-08-02T19:39:06.499Z,3.08
2022-08-02T19:42:08.229Z,2.97
2022-08-02T19:45:13.906Z,3.00
2022-08-02T19:48:16.149Z,3.10
2022-08-02T19:51:49.319Z,3.80
2022-08-02T19:54:55.514Z,3.60
2022-08-02T19:57:58.081Z,4.28
2022-08-02T20:00:59.952Z,4.32
2022-08-02T20:04:02.955Z,3.63
2022-08-02T20:07:05.259Z,4.03
2022-08-02T20:13:30.737Z,9.52
2022-08-02T20:16:48.701Z,7.38
2022-08-02T20:19:52.273Z,5.50
2022-08-02T20:23:32.457Z,4.50
2022-08-02T20:26:35.416Z,4.00
2022-08-02T20:29:56.643Z,4.10
2022-08-02T20:33:21.304Z,2.88
2022-08-02T20:36:20.743Z,4.57
2022-08-02T20:39:22.421Z,3.08
2022-08-02T20:42:45.247Z,2.75
2022-08-02T20:45:52.952Z,2.97
2022-08-02T20:48:56.761Z,3.35
2022-08-02T20:52:02.089Z,2.83
2022-08-02T20:55:03.964Z,2.92
2022-08-02T20:58:06.239Z,2.85
2022-08-02T21:01:13.605Z,3.20
2022-08-02T21:04:17.319Z,2.97
2022-08-02T21:07:22.034Z,3.47
2022-08-02T21:10:24.168Z,2.95
2022-08-02T21:13:26.581Z,3.15
2022-08-02T21:16:28.298Z,2.80
2022-08-02T21:19:30.357Z,3.03
2022-08-02T21:22:32.520Z,2.75
2022-08-02T21:25:42.760Z,2.78
2022-08-02T21:28:56.231Z,2.63
2022-08-02T21:31:58.332Z,3.00
2022-08-02T21:35:02.410Z,2.70
2022-08-02T21:38:04.975Z,3.15
2022-08-02T21:41:12.119Z,3.33
2022-08-02T21:44:16.476Z,3.42
2022-08-02T21:47:36.376Z,4.00
2022-08-02T21:53:42.217Z,3.33
2022-08-02T21:56:44.684Z,3.58
2022-08-02T21:59:48.140Z,3.50
2022-08-02T22:02:54.702Z,3.50
2022-08-02T22:05:56.527Z,3.67
2022-08-02T22:08:58.366Z,4.22
2022-08-02T22:12:00.185Z,3.03
2022-08-02T22:15:02.575Z,3.88
2022-08-02T22:18:05.716Z,3.53
2022-08-02T22:21:14.450Z,3.88
2022-08-02T22:24:19.403Z,4.00
2022-08-02T22:28:15.793Z,3.20
2022-08-02T22:30:52.898Z,3.78
2022-08-02T22:34:26.985Z,3.67
2022-08-02T22:38:16.264Z,3.97
2022-08-02T22:40:55.001Z,3.63
2022-08-02T22:43:57.030Z,3.70
2022-08-02T22:46:59.493Z,3.40
2022-08-02T22:53:13.769Z,3.55
2022-08-02T22:56:26.289Z,3.42
2022-08-02T22:59:05.534Z,5.90
2022-08-02T22:59:39.414Z,3.45
2022-08-02T23:02:42.211Z,3.40
2022-08-02T23:05:47.531Z,3.90
2022-08-02T23:08:49.315Z,3.88
2022-08-02T23:11:51.034Z,3.50
2022-08-02T23:14:53.139Z,3.70
2022-08-02T23:18:13.983Z,3.50
2022-08-02T23:21:46.028Z,3.30
2022-08-02T23:24:37.892Z,3.50
2022-08-02T23:27:39.741Z,4.15
2022-08-02T23:30:52.258Z,3.67
2022-08-02T23:34:03.778Z,3.45
2022-08-02T23:37:06.883Z,3.17
2022-08-02T23:40:09.074Z,3.22
2022-08-02T23:43:14.155Z,3.25
2022-08-02T23:46:17.126Z,3.15
2022-08-02T23:49:19.759Z,3.55
2022-08-02T23:52:21.445Z,3.20
2022-08-02T23:55:23.352Z,3.40
2022-08-02T23:58:24.922Z,3.10
